Time;durP1;ratioP1;P1;durP2;ratioP2;P2;SDS_P1;SDS_P2;PMS_P1;PMS_P2;Temp;Humidity;BMP_temperature;BMP_pressure;BME280_temperature;BME280_humidity;BME280_pressure;Samples;Min_cycle;Max_cycle;Signal;HPM_P1;HPM_P2
2022/10/27 05:03:00;;;;;;;20.73;10.98;;;9.90;99.90;;;;;;5301795;23;20061;-71
2022/10/27 05:05:27;;;;;;;20.10;10.98;;;9.90;99.90;;;;;;5002505;28;20026;-70
2022/10/27 05:07:54;;;;;;;23.80;11.93;;;9.80;99.90;;;;;;5003606;28;20030;-70
2022/10/27 05:10:20;;;;;;;20.83;11.70;;;9.80;99.90;;;;;;5003816;28;20222;-70
2022/10/27 05:12:46;;;;;;;18.15;10.80;;;9.80;99.90;;;;;;5002454;28;20089;-71
2022/10/27 05:15:12;;;;;;;19.50;11.35;;;9.70;99.90;;;;;;5004103;28;20034;-72
2022/10/27 05:17:38;;;;;;;20.38;11.23;;;9.70;99.90;;;;;;5003269;28;20084;-69
2022/10/27 05:20:04;;;;;;;23.25;10.93;;;9.70;99.90;;;;;;5002659;28;20038;-71
2022/10/27 05:22:30;;;;;;;20.50;10.73;;;9.80;99.90;;;;;;5003574;28;20034;-71
2022/10/27 05:24:56;;;;;;;23.50;11.30;;;9.70;99.90;;;;;;4995895;28;20031;-70
2022/10/27 05:27:22;;;;;;;19.60;11.07;;;9.70;99.90;;;;;;4997775;28;20263;-69
2022/10/27 05:29:50;;;;;;;20.20;10.65;;;9.70;99.90;;;;;;5001206;28;20022;-73
2022/10/27 05:32:16;;;;;;;29.98;18.88;;;9.70;99.90;;;;;;4987139;28;20034;-71
2022/10/27 05:34:42;;;;;;;24.90;15.02;;;9.60;99.90;;;;;;4982269;28;20054;-73
2022/10/27 05:37:08;;;;;;;21.23;11.63;;;9.60;99.90;;;;;;4995868;28;20018;-71
2022/10/27 05:39:33;;;;;;;18.63;11.63;;;9.50;99.90;;;;;;5002065;28;20026;-71
2022/10/27 05:41:59;;;;;;;16.73;11.18;;;9.50;99.90;;;;;;5002822;28;20260;-72
2022/10/27 05:44:25;;;;;;;20.05;12.00;;;9.50;99.90;;;;;;5002198;28;20350;-72
2022/10/27 05:46:50;;;;;;;23.08;12.07;;;9.50;99.90;;;;;;5002827;28;20026;-71
2022/10/27 05:49:16;;;;;;;23.90;12.65;;;9.40;99.90;;;;;;5003416;28;20026;-71
2022/10/27 05:51:42;;;;;;;25.30;13.77;;;9.50;99.90;;;;;;4999603;28;20095;-72
2022/10/27 05:54:07;;;;;;;23.77;13.93;;;9.50;99.90;;;;;;4999689;28;20061;-72
2022/10/27 05:56:33;;;;;;;25.80;13.48;;;9.50;99.90;;;;;;5000447;28;20026;-72
2022/10/27 05:58:59;;;;;;;23.73;12.50;;;9.50;99.90;;;;;;4997307;28;20084;-71
2022/10/27 06:01:24;;;;;;;26.10;14.85;;;9.50;99.90;;;;;;5001254;28;20022;-73
2022/10/27 06:03:50;;;;;;;27.95;13.95;;;9.50;99.90;;;;;;5002538;28;20038;-72
2022/10/27 06:06:16;;;;;;;23.50;13.95;;;9.50;99.90;;;;;;5003311;28;20036;-72
2022/10/27 06:08:42;;;;;;;27.75;14.43;;;9.60;99.90;;;;;;4993836;28;20031;-71
2022/10/27 06:11:08;;;;;;;22.95;13.50;;;9.70;99.90;;;;;;4984743;28;20046;-71
2022/10/27 06:13:33;;;;;;;23.00;13.63;;;9.70;99.90;;;;;;4993555;28;20041;-71
2022/10/27 06:15:59;;;;;;;21.65;12.25;;;9.80;99.90;;;;;;5001178;28;20053;-73
2022/10/27 06:18:25;;;;;;;21.30;12.35;;;9.80;99.90;;;;;;5001598;28;20041;-74
2022/10/27 06:20:50;;;;;;;27.60;13.15;;;9.80;99.90;;;;;;5001214;28;20153;-71
2022/10/27 06:23:16;;;;;;;19.67;11.63;;;9.80;99.90;;;;;;4999884;28;20034;-73
2022/10/27 06:25:42;;;;;;;22.40;12.73;;;9.80;99.90;;;;;;4982429;28;20129;-71
2022/10/27 06:28:08;;;;;;;20.27;12.75;;;9.70;99.90;;;;;;4981989;28;20524;-71
2022/10/27 06:30:34;;;;;;;20.38;11.30;;;9.70;99.90;;;;;;4992051;28;20026;-71
2022/10/27 06:32:59;;;;;;;18.42;11.23;;;9.70;99.90;;;;;;5000888;28;20088;-72
2022/10/27 06:35:25;;;;;;;19.67;11.60;;;9.70;99.90;;;;;;5001375;28;20034;-73
2022/10/27 06:37:51;;;;;;;23.10;11.32;;;9.70;99.90;;;;;;5000207;28;20321;-71
2022/10/27 06:40:18;;;;;;;20.27;10.43;;;9.80;99.90;;;;;;4995812;28;20027;-70
2022/10/27 06:42:52;;;;;;;19.63;10.97;;;9.80;99.90;;;;;;5001647;28;20053;-72
2022/10/27 06:45:18;;;;;;;17.27;9.70;;;9.80;99.90;;;;;;4999264;28;20085;-71
2022/10/27 06:47:44;;;;;;;17.10;9.73;;;9.80;99.90;;;;;;4990632;28;20033;-70
2022/10/27 06:50:11;;;;;;;15.93;9.05;;;9.80;99.90;;;;;;5000151;28;20036;-72
2022/10/27 06:52:37;;;;;;;17.58;9.05;;;9.80;99.90;;;;;;4999019;28;20082;-72
2022/10/27 06:55:04;;;;;;;14.60;9.20;;;9.90;99.90;;;;;;5000510;28;20322;-71
2022/10/27 06:57:41;;;;;;;14.15;9.00;;;10.00;99.90;;;;;;5001602;28;20057;-70
2022/10/27 07:00:08;;;;;;;15.73;8.48;;;10.00;99.90;;;;;;5000634;28;20023;-73
2022/10/27 07:02:33;;;;;;;15.63;8.30;;;10.10;99.90;;;;;;5000766;28;20050;-72
2022/10/27 07:05:00;;;;;;;13.35;8.30;;;10.20;99.90;;;;;;5000092;28;20045;-71
2022/10/27 07:07:25;;;;;;;19.42;8.65;;;10.20;99.90;;;;;;5001384;28;20084;-70
2022/10/27 07:09:51;;;;;;;13.48;7.82;;;10.30;99.90;;;;;;4992859;28;20027;-69
2022/10/27 07:12:17;;;;;;;13.23;8.38;;;10.40;99.90;;;;;;5000726;28;20089;-69
2022/10/27 07:14:42;;;;;;;13.23;8.10;;;10.50;99.90;;;;;;5000963;28;20044;-69
2022/10/27 07:17:08;;;;;;;14.82;7.95;;;10.50;99.90;;;;;;4999532;28;20088;-71
2022/10/27 07:19:34;;;;;;;14.00;7.70;;;10.60;99.90;;;;;;4999936;28;20030;-71
2022/10/27 07:21:59;;;;;;;10.07;6.57;;;10.60;99.90;;;;;;5000443;28;20224;-71
2022/10/27 07:24:25;;;;;;;10.38;6.50;;;10.70;99.90;;;;;;4987527;28;20321;-71
2022/10/27 07:26:51;;;;;;;11.07;7.10;;;10.70;99.90;;;;;;5000297;28;20256;-70
2022/10/27 07:29:16;;;;;;;13.10;6.40;;;10.80;99.90;;;;;;4994031;28;20027;-72
2022/10/27 07:31:46;;;;;;;9.80;6.13;;;10.80;99.90;;;;;;4981511;28;20077;-70
2022/10/27 07:34:12;;;;;;;10.52;6.20;;;10.90;99.90;;;;;;4981335;28;20206;-71
2022/10/27 07:36:38;;;;;;;9.50;6.45;;;11.00;99.90;;;;;;4981490;28;20093;-70
2022/10/27 07:39:04;;;;;;;10.63;6.60;;;11.10;99.90;;;;;;4980983;28;20104;-70
2022/10/27 07:41:30;;;;;;;10.40;5.88;;;11.20;99.90;;;;;;4989722;28;20030;-71
2022/10/27 07:43:56;;;;;;;11.18;6.15;;;11.30;99.90;;;;;;4984376;28;20220;-69
2022/10/27 07:46:21;;;;;;;9.18;5.55;;;11.30;99.90;;;;;;4984810;28;20031;-71
2022/10/27 07:48:47;;;;;;;10.00;5.57;;;11.30;99.90;;;;;;4984520;28;20300;-70
2022/10/27 07:51:13;;;;;;;9.23;5.18;;;11.40;99.90;;;;;;4984713;28;20139;-69
2022/10/27 07:53:38;;;;;;;10.00;4.97;;;11.40;99.90;;;;;;4984988;28;20054;-71
2022/10/27 07:56:04;;;;;;;10.93;6.03;;;11.50;99.90;;;;;;4984317;28;20031;-71
2022/10/27 07:58:30;;;;;;;10.02;4.80;;;11.60;99.90;;;;;;4984474;28;20038;-73
2022/10/27 08:00:57;;;;;;;20.80;6.22;;;11.70;99.90;;;;;;4984198;28;20046;-70
2022/10/27 08:03:25;;;;;;;9.40;4.78;;;11.80;99.90;;;;;;4984535;28;20042;-70
2022/10/27 08:05:51;;;;;;;7.13;4.75;;;11.80;99.90;;;;;;4984375;28;20030;-69
2022/10/27 08:08:17;;;;;;;8.95;5.30;;;11.90;99.90;;;;;;4984438;28;20065;-70
2022/10/27 08:10:44;;;;;;;8.07;5.60;;;12.10;99.90;;;;;;4997529;28;20038;-71
2022/10/27 08:13:13;;;;;;;7.68;4.82;;;12.10;99.90;;;;;;5003072;28;20281;-71
2022/10/27 08:15:39;;;;;;;8.63;5.20;;;12.20;99.90;;;;;;5003699;28;20022;-69
2022/10/27 08:18:05;;;;;;;8.15;4.70;;;12.40;99.90;;;;;;5003423;28;20363;-71
2022/10/27 08:20:35;;;;;;;7.78;4.75;;;12.50;99.90;;;;;;5003438;28;20102;-69
2022/10/27 08:23:03;;;;;;;11.20;4.68;;;12.60;99.90;;;;;;5002924;28;20097;-69
2022/10/27 08:25:30;;;;;;;7.38;4.50;;;12.60;99.90;;;;;;5003198;28;20338;-70
2022/10/27 08:27:56;;;;;;;11.10;5.13;;;12.70;99.90;;;;;;5003082;28;20172;-71
2022/10/27 08:30:24;;;;;;;8.52;4.72;;;12.80;99.90;;;;;;5003837;28;20201;-69
2022/10/27 08:32:55;;;;;;;9.77;4.03;;;12.90;99.90;;;;;;5003273;28;20129;-71
2022/10/27 08:35:21;;;;;;;7.78;4.70;;;13.00;99.90;;;;;;5003528;28;20034;-70
2022/10/27 08:37:47;;;;;;;6.53;4.25;;;13.10;99.90;;;;;;5003300;28;20085;-70
2022/10/27 08:40:13;;;;;;;10.45;4.18;;;13.30;99.90;;;;;;5002797;28;20086;-70
2022/10/27 08:43:09;;;;;;;22.55;10.40;;;13.40;99.90;;;;;;5002948;28;20312;-69
2022/10/27 08:45:51;;;;;;;9.40;5.10;;;13.50;99.90;;;;;;5003141;28;20326;-70
2022/10/27 08:48:24;;;;;;;13.20;5.22;;;13.60;99.90;;;;;;5003354;28;20038;-70
2022/10/27 08:50:51;;;;;;;20.80;9.95;;;13.70;99.90;;;;;;5002343;28;20030;-68
2022/10/27 08:53:26;;;;;;;13.70;6.57;;;13.80;99.90;;;;;;5001543;28;20034;-70
2022/10/27 08:55:59;;;;;;;12.20;5.43;;;13.90;99.90;;;;;;5002754;28;20026;-69
2022/10/27 08:58:36;;;;;;;9.95;5.07;;;14.00;99.90;;;;;;5003158;28;20023;-69
2022/10/27 09:01:18;;;;;;;13.82;4.97;;;14.10;99.90;;;;;;5002710;28;20033;-69
2022/10/27 09:04:07;;;;;;;11.52;5.18;;;14.20;99.90;;;;;;5002521;28;20083;-70
2022/10/27 09:06:57;;;;;;;11.00;4.85;;;14.30;99.90;;;;;;5002536;28;20220;-69
2022/10/27 09:09:34;;;;;;;12.50;4.80;;;14.40;99.90;;;;;;5002830;28;20030;-69
2022/10/27 09:12:14;;;;;;;11.60;4.63;;;14.50;99.90;;;;;;5002049;28;20035;-70
2022/10/27 09:15:04;;;;;;;9.57;4.55;;;14.60;99.90;;;;;;5002562;28;20050;-71
2022/10/27 09:17:39;;;;;;;9.45;4.82;;;14.80;99.90;;;;;;5002559;28;20037;-70
2022/10/27 09:20:15;;;;;;;8.30;4.43;;;14.80;99.90;;;;;;5002274;28;20046;-69
2022/10/27 09:22:42;;;;;;;9.27;4.53;;;14.90;99.90;;;;;;5002577;28;20050;-69
2022/10/27 09:25:21;;;;;;;8.43;3.95;;;15.00;99.90;;;;;;5001787;28;20370;-70
2022/10/27 09:27:52;;;;;;;8.20;4.53;;;15.10;99.90;;;;;;5001204;28;20220;-69
2022/10/27 09:30:18;;;;;;;10.57;4.57;;;15.30;99.90;;;;;;5002230;28;20025;-70
2022/10/27 09:32:52;;;;;;;9.32;4.45;;;15.40;99.90;;;;;;5002340;28;20097;-69
2022/10/27 09:35:27;;;;;;;9.98;4.78;;;15.50;99.90;;;;;;5002233;28;20026;-69
2022/10/27 09:37:55;;;;;;;9.00;4.85;;;15.70;99.90;;;;;;5001614;28;20042;-71
2022/10/27 09:40:22;;;;;;;11.43;4.97;;;15.70;99.90;;;;;;5002390;28;20034;-72
2022/10/27 09:42:53;;;;;;;10.38;5.03;;;15.90;99.90;;;;;;5002010;28;20320;-72
2022/10/27 09:45:22;;;;;;;17.55;7.43;;;16.00;99.90;;;;;;5002147;28;20076;-72
2022/10/27 09:47:57;;;;;;;14.15;7.25;;;16.10;99.90;;;;;;5002373;28;20034;-71
2022/10/27 09:50:38;;;;;;;10.48;4.30;;;16.20;99.90;;;;;;5002193;28;20034;-71
2022/10/27 09:53:04;;;;;;;11.82;5.03;;;16.40;99.90;;;;;;5001704;28;20324;-71
2022/10/27 09:55:51;;;;;;;10.75;5.47;;;16.50;99.90;;;;;;5002142;28;20143;-72
2022/10/27 09:58:18;;;;;;;10.07;5.05;;;16.60;99.90;;;;;;5001541;28;20027;-71
2022/10/27 10:00:44;;;;;;;12.52;5.90;;;16.70;99.90;;;;;;5000589;28;20034;-70
2022/10/27 10:03:20;;;;;;;14.13;5.38;;;16.80;99.90;;;;;;5001568;28;20046;-73
2022/10/27 10:06:04;;;;;;;13.70;5.28;;;16.90;99.90;;;;;;4982248;28;20033;-71
2022/10/27 10:08:34;;;;;;;14.25;7.28;;;17.10;99.90;;;;;;4982508;28;20030;-72
2022/10/27 10:11:02;;;;;;;15.50;7.50;;;17.20;99.90;;;;;;4996256;28;20092;-70
2022/10/27 10:13:30;;;;;;;12.52;5.60;;;17.30;99.90;;;;;;5001754;28;20493;-71
2022/10/27 10:16:14;;;;;;;15.87;5.47;;;17.50;99.90;;;;;;5001246;28;20090;-75
2022/10/27 10:18:45;;;;;;;13.98;5.93;;;17.70;99.90;;;;;;5001691;28;20092;-71
2022/10/27 10:21:12;;;;;;;12.77;5.10;;;17.80;99.90;;;;;;5001134;28;20031;-72
2022/10/27 10:23:47;;;;;;;12.33;4.20;;;18.00;99.90;;;;;;5001570;28;20057;-71
2022/10/27 10:26:23;;;;;;;9.30;4.18;;;18.20;99.90;;;;;;5000957;28;20034;-70
2022/10/27 10:28:53;;;;;;;10.90;4.75;;;18.40;99.90;;;;;;5001246;28;20041;-71
2022/10/27 10:31:27;;;;;;;11.68;4.00;;;18.60;99.90;;;;;;5000876;28;20347;-72
2022/10/27 10:34:01;;;;;;;13.18;4.32;;;19.00;99.90;;;;;;5001279;28;20038;-71
2022/10/27 10:36:32;;;;;;;12.27;3.65;;;19.40;99.90;;;;;;5001060;28;20077;-71
2022/10/27 10:38:59;;;;;;;10.15;3.47;;;19.70;99.90;;;;;;4999931;28;20251;-70
2022/10/27 10:41:29;;;;;;;10.35;3.58;;;20.10;99.90;;;;;;5001595;28;20022;-71
2022/10/27 10:44:12;;;;;;;8.00;3.85;;;20.40;99.90;;;;;;4999952;28;20038;-75
2022/10/27 10:46:48;;;;;;;10.48;3.95;;;20.80;99.90;;;;;;5000714;28;20054;-68
2022/10/27 10:49:23;;;;;;;9.95;3.60;;;21.30;99.90;;;;;;5000701;28;20076;-69
2022/10/27 10:51:55;;;;;;;8.27;3.58;;;21.70;99.90;;;;;;5001101;28;20054;-69
2022/10/27 10:54:32;;;;;;;12.38;3.78;;;22.20;99.90;;;;;;5001308;28;20104;-72
2022/10/27 10:56:58;;;;;;;7.80;3.55;;;22.70;99.90;;;;;;5000813;28;20444;-72
2022/10/27 10:59:30;;;;;;;10.98;3.53;;;23.00;99.50;;;;;;5001153;28;20180;-72
2022/10/27 11:02:26;;;;;;;7.82;2.72;;;23.50;98.80;;;;;;5000936;28;20175;-72
2022/10/27 11:04:52;;;;;;;10.13;3.45;;;24.00;97.70;;;;;;5000952;28;20043;-69
2022/10/27 11:07:26;;;;;;;8.48;2.72;;;24.60;96.50;;;;;;5000395;28;20304;-70
2022/10/27 11:09:58;;;;;;;6.60;2.50;;;25.00;95.60;;;;;;5001118;28;20030;-68
2022/10/27 11:12:31;;;;;;;7.05;3.10;;;25.60;94.60;;;;;;4999204;28;20042;-71
2022/10/27 11:15:02;;;;;;;8.00;3.05;;;26.20;93.20;;;;;;5000988;28;20045;-71
2022/10/27 11:17:31;;;;;;;9.50;3.38;;;26.40;92.20;;;;;;5005004;28;20039;-68
2022/10/27 11:19:58;;;;;;;8.55;3.20;;;26.80;91.30;;;;;;5004735;28;20093;-70
2022/10/27 11:22:25;;;;;;;12.70;3.75;;;27.10;90.60;;;;;;5004184;28;20037;-70
2022/10/27 11:25:13;;;;;;;9.70;3.58;;;27.60;89.30;;;;;;5004515;28;20042;-69
2022/10/27 11:27:49;;;;;;;9.73;2.97;;;28.20;88.10;;;;;;5004343;28;20104;-71
2022/10/27 11:30:22;;;;;;;9.27;2.95;;;28.80;84.60;;;;;;5004188;28;20034;-69
2022/10/27 11:33:28;;;;;;;7.70;3.25;;;28.60;84.10;;;;;;5004689;28;20398;-71
2022/10/27 11:36:31;;;;;;;9.35;3.05;;;28.70;83.10;;;;;;4983859;28;20046;-73
2022/10/27 11:39:05;;;;;;;11.55;3.17;;;28.90;82.00;;;;;;4995271;28;20046;-72
2022/10/27 11:42:05;;;;;;;10.77;5.55;;;29.60;81.50;;;;;;5004484;28;20049;-70
2022/10/27 11:44:48;;;;;;;9.65;3.97;;;29.80;78.80;;;;;;5004230;28;20281;-71
2022/10/27 11:47:30;;;;;;;9.93;3.35;;;30.10;78.30;;;;;;5004147;28;20093;-71
2022/10/27 11:50:03;;;;;;;8.63;3.10;;;30.80;76.40;;;;;;5004360;28;20308;-73
2022/10/27 11:52:37;;;;;;;7.82;3.00;;;31.40;75.00;;;;;;5004317;28;20144;-71
2022/10/27 11:55:06;;;;;;;9.60;2.70;;;32.00;73.00;;;;;;5004084;28;20038;-71
2022/10/27 11:58:10;;;;;;;7.40;2.30;;;32.50;71.50;;;;;;5004287;28;20029;-70
2022/10/27 12:00:52;;;;;;;10.40;3.17;;;33.00;70.60;;;;;;4971264;28;20046;-70
2022/10/27 12:03:43;;;;;;;6.63;2.40;;;33.40;68.40;;;;;;5002149;28;20214;-72
2022/10/27 12:06:34;;;;;;;5.88;2.00;;;33.60;67.30;;;;;;4984311;28;20208;-72
2022/10/27 12:09:29;;;;;;;9.00;2.80;;;33.50;67.30;;;;;;4984263;28;20065;-72
2022/10/27 12:12:12;;;;;;;9.55;3.40;;;34.00;66.60;;;;;;4984456;28;20089;-70
2022/10/27 12:14:56;;;;;;;8.82;2.42;;;34.10;65.40;;;;;;4984241;28;20047;-71
2022/10/27 12:17:30;;;;;;;6.88;2.22;;;34.00;64.20;;;;;;4986101;28;20031;-72
2022/10/27 12:19:59;;;;;;;5.03;2.00;;;34.20;64.20;;;;;;5003645;28;20026;-72
2022/10/27 12:22:41;;;;;;;7.25;2.33;;;34.80;64.70;;;;;;5003047;28;20056;-69
2022/10/27 12:25:12;;;;;;;7.45;2.50;;;34.40;63.10;;;;;;5002885;28;20399;-69
2022/10/27 12:27:41;;;;;;;6.90;2.45;;;34.30;62.90;;;;;;5002467;28;20132;-73
2022/10/27 12:30:36;;;;;;;5.93;2.33;;;34.50;62.70;;;;;;5001886;28;20106;-72
2022/10/27 12:33:02;;;;;;;5.82;2.28;;;35.20;63.10;;;;;;4992599;28;20097;-72
2022/10/27 12:35:37;;;;;;;8.88;2.05;;;35.90;60.90;;;;;;5003109;28;20030;-72
2022/10/27 12:38:15;;;;;;;14.77;8.05;;;36.40;60.50;;;;;;5002497;28;20129;-72
2022/10/27 12:40:43;;;;;;;;;;;37.20;60.00;;;;;;5003729;28;20058;-73
2022/10/27 12:43:30;;;;;;;6.60;2.30;;;37.40;58.90;;;;;;5001275;28;19944;-71
2022/10/27 12:46:05;;;;;;;9.10;3.05;;;37.20;57.90;;;;;;5002789;28;20041;-73
2022/10/27 12:49:04;;;;;;;7.25;2.45;;;37.10;57.70;;;;;;5002067;28;20341;-72
2022/10/27 12:51:50;;;;;;;6.43;2.28;;;37.40;57.60;;;;;;5002567;28;20157;-70
2022/10/27 12:54:27;;;;;;;6.97;2.10;;;37.10;59.30;;;;;;5001769;28;20026;-71
2022/10/27 12:57:22;;;;;;;6.85;2.30;;;38.00;57.30;;;;;;5001114;28;20046;-70
2022/10/27 13:00:02;;;;;;;7.78;2.10;;;37.60;56.80;;;;;;5000386;28;20042;-71
2022/10/27 13:02:36;;;;;;;6.15;1.70;;;37.00;56.70;;;;;;5001230;28;20042;-72
2022/10/27 13:05:24;;;;;;;7.78;4.32;;;36.00;57.50;;;;;;5000995;28;20076;-73
2022/10/27 13:08:11;;;;;;;9.60;7.22;;;35.00;58.30;;;;;;5001533;28;20022;-73
2022/10/27 13:10:48;;;;;;;5.68;2.17;;;35.30;59.00;;;;;;5000456;28;20022;-73
2022/10/27 13:13:47;;;;;;;15.70;13.35;;;34.70;58.90;;;;;;5000302;28;20267;-71
2022/10/27 13:16:50;;;;;;;11.45;6.32;;;34.50;59.40;;;;;;4999848;28;20037;-73
2022/10/27 13:19:25;;;;;;;7.95;2.70;;;34.30;59.60;;;;;;4999775;28;20041;-71
2022/10/27 13:22:15;;;;;;;8.18;4.10;;;33.80;60.00;;;;;;4999959;28;20104;-71
2022/10/27 13:24:46;;;;;;;6.57;2.50;;;33.20;61.40;;;;;;4997842;28;20128;-70
2022/10/27 13:27:30;;;;;;;7.30;1.85;;;32.80;62.20;;;;;;4999202;28;20316;-72
2022/10/27 13:30:05;;;;;;;9.57;2.22;;;32.10;61.90;;;;;;5000277;28;20113;-72
2022/10/27 13:32:54;;;;;;;8.38;2.75;;;31.80;62.40;;;;;;5000130;28;20049;-73
2022/10/27 13:35:27;;;;;;;8.73;3.45;;;31.00;64.10;;;;;;5000084;28;20034;-72
2022/10/27 13:37:58;;;;;;;5.43;2.30;;;30.40;64.80;;;;;;4999732;28;20034;-72
2022/10/27 13:40:29;;;;;;;7.63;2.33;;;29.70;66.20;;;;;;4999885;28;20089;-72
2022/10/27 13:43:22;;;;;;;8.02;2.33;;;29.40;67.00;;;;;;5000133;28;20138;-70
2022/10/27 13:45:54;;;;;;;6.32;2.25;;;29.40;67.20;;;;;;4998306;28;20097;-70
2022/10/27 13:48:20;;;;;;;7.95;2.20;;;29.50;67.20;;;;;;4997426;28;20284;-71
2022/10/27 13:50:51;;;;;;;7.28;2.35;;;29.90;66.80;;;;;;4998599;28;20041;-73
2022/10/27 13:53:17;;;;;;;10.98;2.17;;;29.90;66.50;;;;;;4998685;28;20049;-72
2022/10/27 13:55:44;;;;;;;7.70;2.00;;;29.80;66.20;;;;;;4998651;28;20287;-70
2022/10/27 13:58:25;;;;;;;8.50;2.13;;;29.50;66.20;;;;;;4997805;28;20042;-70
2022/10/27 14:01:01;;;;;;;8.07;2.42;;;29.30;66.80;;;;;;4999433;28;20425;-70
2022/10/27 14:03:36;;;;;;;6.13;1.88;;;29.30;67.30;;;;;;4998131;28;20057;-72
2022/10/27 14:06:16;;;;;;;6.75;2.17;;;30.00;67.10;;;;;;4997638;28;20102;-71
2022/10/27 14:08:45;;;;;;;7.35;2.65;;;30.30;65.90;;;;;;4981885;28;20098;-71
2022/10/27 14:11:31;;;;;;;8.00;2.25;;;30.30;66.10;;;;;;4998209;28;20101;-72
2022/10/27 14:14:13;;;;;;;20.02;10.63;;;30.30;66.00;;;;;;5001360;28;20085;-72
2022/10/27 14:16:40;;;;;;;17.42;8.85;;;29.90;66.30;;;;;;5001525;28;20031;-73
2022/10/27 14:19:29;;;;;;;7.45;2.25;;;30.30;66.40;;;;;;4983970;28;20053;-72
2022/10/27 14:21:56;;;;;;;8.70;3.90;;;30.20;66.50;;;;;;4981575;28;20035;-73
2022/10/27 14:24:47;;;;;;;7.85;3.13;;;31.20;65.80;;;;;;4980466;28;20042;-72
2022/10/27 14:27:18;;;;;;;5.53;2.35;;;32.00;64.30;;;;;;4981156;28;20058;-71
2022/10/27 14:29:44;;;;;;;8.77;2.90;;;32.10;64.00;;;;;;4981834;28;20069;-73
2022/10/27 14:32:23;;;;;;;8.15;2.20;;;31.70;63.20;;;;;;4979593;28;20309;-73
2022/10/27 14:34:49;;;;;;;9.10;2.28;;;30.80;64.60;;;;;;4981418;28;20037;-73
2022/10/27 14:37:31;;;;;;;9.50;2.50;;;30.10;66.00;;;;;;4979625;28;20030;-71
2022/10/27 14:40:00;;;;;;;7.00;3.47;;;29.40;67.90;;;;;;4980875;28;20042;-71
2022/10/27 14:42:30;;;;;;;10.23;4.30;;;28.90;67.90;;;;;;4979105;28;20205;-73
2022/10/27 14:45:01;;;;;;;6.78;2.40;;;28.60;69.00;;;;;;4980234;28;20124;-71
2022/10/27 14:47:27;;;;;;;7.68;2.47;;;28.60;69.70;;;;;;4979770;28;20103;-70
2022/10/27 14:50:01;;;;;;;7.32;2.72;;;28.70;69.10;;;;;;4980633;28;20086;-70
2022/10/27 14:52:40;;;;;;;8.25;2.53;;;28.70;70.80;;;;;;4979691;28;20212;-72
2022/10/27 14:55:34;;;;;;;7.32;2.38;;;29.00;71.00;;;;;;4981261;28;20043;-70
2022/10/27 14:57:59;;;;;;;5.07;2.10;;;29.10;69.10;;;;;;4981338;28;20086;-71
2022/10/27 15:00:30;;;;;;;6.05;2.63;;;29.40;71.10;;;;;;4980678;28;20339;-71
2022/10/27 15:03:03;;;;;;;5.00;2.10;;;29.60;70.10;;;;;;4980750;28;20106;-71
2022/10/27 15:05:34;;;;;;;4.85;2.30;;;29.40;70.30;;;;;;4980729;28;20050;-71
2022/10/27 15:08:03;;;;;;;7.97;2.40;;;29.20;70.00;;;;;;4961584;28;20035;-71
2022/10/27 15:10:35;;;;;;;5.88;2.40;;;29.00;71.40;;;;;;4972333;28;20029;-72
2022/10/27 15:13:05;;;;;;;6.30;2.00;;;28.60;71.20;;;;;;4980944;28;20033;-71
2022/10/27 15:15:34;;;;;;;9.35;2.63;;;28.40;69.90;;;;;;4980757;28;20272;-72
2022/10/27 15:18:25;;;;;;;8.50;2.33;;;28.30;73.80;;;;;;4980129;28;20082;-71
2022/10/27 15:20:52;;;;;;;8.43;3.05;;;28.00;71.10;;;;;;4953908;28;20026;-74
2022/10/27 15:23:19;;;;;;;5.45;2.05;;;27.90;71.20;;;;;;4973416;28;20146;-71
2022/10/27 15:25:48;;;;;;;6.93;2.90;;;27.90;73.00;;;;;;4960759;28;20020;-71
2022/10/27 15:28:15;;;;;;;8.40;4.82;;;27.90;73.30;;;;;;4968226;28;20035;-73
2022/10/27 15:30:43;;;;;;;6.95;3.00;;;27.60;71.50;;;;;;4980202;28;20097;-73
2022/10/27 15:33:27;;;;;;;4.70;2.05;;;27.30;75.90;;;;;;4979803;28;20059;-71
2022/10/27 15:36:07;;;;;;;6.20;2.08;;;27.00;75.50;;;;;;4979855;28;20054;-72
2022/10/27 15:38:33;;;;;;;8.52;2.25;;;26.40;74.00;;;;;;4979779;28;20058;-72
2022/10/27 15:41:15;;;;;;;8.88;2.92;;;26.00;75.60;;;;;;4980205;28;20047;-69
2022/10/27 15:43:42;;;;;;;8.13;3.55;;;25.50;77.20;;;;;;4980596;28;20066;-72
2022/10/27 15:46:28;;;;;;;9.65;4.13;;;25.20;81.20;;;;;;4979794;28;20030;-73
2022/10/27 15:49:01;;;;;;;8.88;3.58;;;24.70;83.40;;;;;;4980044;28;20119;-74
2022/10/27 15:51:54;;;;;;;11.07;3.58;;;24.30;83.10;;;;;;4979924;28;20031;-72
2022/10/27 15:54:32;;;;;;;7.05;2.45;;;24.10;85.10;;;;;;4980521;28;20056;-72
2022/10/27 15:57:00;;;;;;;11.43;6.05;;;23.70;84.80;;;;;;4980151;28;20210;-73
2022/10/27 15:59:28;;;;;;;12.02;3.88;;;23.20;87.30;;;;;;4978824;28;20038;-72
2022/10/27 16:02:05;;;;;;;7.03;2.92;;;22.70;89.10;;;;;;4984837;28;20053;-71
2022/10/27 16:04:36;;;;;;;7.32;2.47;;;22.50;90.00;;;;;;5004896;28;20034;-71
2022/10/27 16:07:11;;;;;;;5.40;2.17;;;22.30;90.60;;;;;;5006499;28;20088;-70
2022/10/27 16:09:55;;;;;;;6.70;2.20;;;22.00;91.10;;;;;;5007247;28;20081;-77
2022/10/27 16:12:24;;;;;;;8.43;2.30;;;21.80;91.30;;;;;;5006993;28;20037;-68
2022/10/27 16:15:00;;;;;;;7.43;3.00;;;21.60;91.80;;;;;;5006574;28;20288;-71
2022/10/27 16:17:33;;;;;;;8.32;3.22;;;21.50;92.40;;;;;;5005066;28;20110;-71
2022/10/27 16:20:09;;;;;;;11.48;3.47;;;21.30;92.80;;;;;;5007289;28;20088;-71
2022/10/27 16:22:36;;;;;;;13.13;3.97;;;21.10;92.80;;;;;;5006599;28;20034;-71
2022/10/27 16:25:02;;;;;;;9.38;3.25;;;20.90;93.10;;;;;;5005552;28;20030;-74
2022/10/27 16:27:32;;;;;;;10.32;3.60;;;20.70;93.70;;;;;;4989360;28;20097;-73
2022/10/27 16:30:06;;;;;;;11.88;3.65;;;20.50;94.10;;;;;;5005536;28;20030;-69
2022/10/27 16:32:34;;;;;;;9.48;4.03;;;20.30;95.20;;;;;;5004910;28;20057;-71
2022/10/27 16:35:00;;;;;;;9.93;4.15;;;20.20;95.10;;;;;;5005905;28;20238;-72
2022/10/27 16:37:35;;;;;;;9.50;3.65;;;20.20;96.40;;;;;;5006993;28;20052;-70
2022/10/27 16:40:01;;;;;;;8.18;3.55;;;20.20;96.70;;;;;;5007814;28;20089;-71
2022/10/27 16:42:27;;;;;;;9.48;4.25;;;20.10;96.70;;;;;;5006288;28;20025;-72
2022/10/27 16:44:54;;;;;;;7.68;3.97;;;20.10;96.90;;;;;;5006799;28;20092;-70
2022/10/27 16:47:20;;;;;;;9.73;4.38;;;20.00;97.10;;;;;;5005736;28;20034;-70
2022/10/27 16:49:46;;;;;;;11.82;4.80;;;19.80;97.80;;;;;;5006508;28;20030;-72
2022/10/27 16:52:12;;;;;;;10.57;4.47;;;19.80;97.70;;;;;;5005013;28;20081;-72
2022/10/27 16:54:40;;;;;;;13.73;5.07;;;19.70;99.30;;;;;;5005667;28;20101;-71
2022/10/27 16:57:08;;;;;;;10.68;4.97;;;19.60;99.70;;;;;;5004665;28;20034;-74
2022/10/27 16:59:35;;;;;;;12.60;4.90;;;19.60;99.90;;;;;;5003993;28;20049;-71
2022/10/27 17:02:02;;;;;;;10.68;4.60;;;19.60;99.20;;;;;;5004933;28;20145;-70
2022/10/27 17:04:28;;;;;;;9.52;4.70;;;19.40;99.90;;;;;;4988512;28;20110;-72
2022/10/27 17:06:54;;;;;;;11.20;4.93;;;19.30;99.90;;;;;;4993354;28;20308;-72
2022/10/27 17:09:20;;;;;;;10.82;4.97;;;19.30;99.90;;;;;;4987145;28;20033;-72
2022/10/27 17:11:50;;;;;;;10.80;4.50;;;19.20;99.90;;;;;;5004542;28;20037;-75
2022/10/27 17:14:16;;;;;;;10.85;5.95;;;19.10;99.90;;;;;;5003457;28;20042;-71
2022/10/27 17:16:42;;;;;;;9.63;5.22;;;19.00;99.90;;;;;;5003953;28;20093;-72
2022/10/27 17:19:07;;;;;;;12.32;5.78;;;18.90;99.90;;;;;;4988201;28;20030;-71
2022/10/27 17:21:34;;;;;;;11.48;5.85;;;18.80;99.90;;;;;;4984987;28;20049;-74
2022/10/27 17:24:01;;;;;;;10.95;5.28;;;18.80;99.90;;;;;;4985339;28;20092;-71
2022/10/27 17:26:27;;;;;;;16.85;7.07;;;18.70;99.90;;;;;;4984735;28;20035;-74
2022/10/27 17:28:57;;;;;;;12.93;7.38;;;18.70;99.90;;;;;;4984944;28;20047;-72
2022/10/27 17:31:23;;;;;;;13.73;6.85;;;18.70;99.90;;;;;;4985725;28;20041;-71
2022/10/27 17:33:49;;;;;;;11.98;6.70;;;18.60;99.90;;;;;;4985574;28;20031;-71
2022/10/27 17:36:15;;;;;;;13.88;6.40;;;18.60;99.90;;;;;;4986145;28;20034;-71
2022/10/27 17:38:41;;;;;;;13.55;6.65;;;18.50;99.90;;;;;;4985638;28;20010;-72
2022/10/27 17:41:09;;;;;;;16.13;7.45;;;18.50;99.90;;;;;;4985315;28;20031;-71
2022/10/27 17:43:35;;;;;;;16.25;7.47;;;18.50;99.90;;;;;;4969071;28;20087;-71
2022/10/27 17:46:03;;;;;;;13.68;7.45;;;18.40;99.90;;;;;;4985446;28;20026;-71
2022/10/27 17:48:43;;;;;;;14.32;6.88;;;18.30;99.90;;;;;;4983287;28;20170;-70
2022/10/27 17:51:20;;;;;;;12.27;6.68;;;18.30;99.90;;;;;;4984151;28;20045;-72
2022/10/27 17:53:47;;;;;;;16.63;8.27;;;18.20;99.90;;;;;;4984966;28;20030;-72
2022/10/27 17:56:19;;;;;;;14.95;7.88;;;18.20;99.90;;;;;;4967342;28;20015;-71
2022/10/27 17:58:46;;;;;;;15.10;7.30;;;18.20;99.90;;;;;;4983689;28;20292;-72
2022/10/27 18:01:31;;;;;;;16.23;7.80;;;18.10;99.90;;;;;;4983652;28;20035;-71
2022/10/27 18:04:04;;;;;;;15.75;7.47;;;18.10;99.90;;;;;;4984279;28;20045;-72
2022/10/27 18:06:31;;;;;;;17.23;7.90;;;18.00;99.90;;;;;;4976553;28;20052;-72
2022/10/27 18:08:59;;;;;;;17.83;7.00;;;17.90;99.90;;;;;;4984835;28;20138;-71
2022/10/27 18:11:30;;;;;;;13.63;7.55;;;17.90;99.90;;;;;;5003995;28;20030;-72